SBKG/CPV METAR and TAF weather

Enter ICAO airport designator
Station Type Date Time Source
SBKG METAR 2019/02/17 16:00 UTC NOAA

SBKG 171600Z 11009KT 8000 VCSH FEW032TCU BKN075 25/22 Q1015


Station Type Date Time Source
SBKG Decoded METAR 2019/02/17 16:00 UTC NOAA

Campina Grande, Brazil (SBKG) 07-13S 035-53W
Feb 17, 2019 - 11:00 AM EST / 2019.02.17 1600 UTC
Wind: from the ESE (110 degrees) at 10 MPH (9 KT):0
Visibility: 4 mile(s):0
Sky conditions: mostly cloudy
Weather: showers in the vicinity; Towering cumulus clouds observed
Temperature: 77 F (25 C)
Dew Point: 71 F (22 C)
Relative Humidity: 83%
Pressure (altimeter): 29.97 in. Hg (1015 hPa)
ob: SBKG 171600Z 11009KT 8000 VCSH FEW032TCU BKN075 25/22 Q1015
cycle: 16

Station Type Date Time Source
SBKG TAF 2019/02/17 12:30 UTC NOAA

TAF SBKG 171000Z 1712/1724 08010KT 8000 SCT025 TX30/1718Z TN23/1723Z
RMK PEA


Example: see airport list